createdAt,value
2023-05-09T00:02:00.074Z,101484.16
2023-05-09T00:04:26.912Z,101485.19
2023-05-09T00:06:53.624Z,101475.06
2023-05-09T00:09:20.409Z,101480.09
2023-05-09T00:11:48.218Z,101463.97
2023-05-09T00:14:15.041Z,101460.53
2023-05-09T00:16:45.007Z,101466.56
2023-05-09T00:19:13.152Z,101462.31
2023-05-09T00:21:42.403Z,101459.69
2023-05-09T00:24:09.128Z,101456.47
2023-05-09T00:26:36.545Z,101455.66
2023-05-09T00:29:03.272Z,101461.09
2023-05-09T00:31:29.945Z,101456.06
2023-05-09T00:33:56.569Z,101454.63
2023-05-09T00:36:26.176Z,101459.25
2023-05-09T00:38:53.661Z,101451.38
2023-05-09T00:41:21.530Z,101442.88
2023-05-09T00:44:07.075Z,101440.09
2023-05-09T00:46:34.002Z,101444.88
2023-05-09T00:49:19.556Z,101448.94
2023-05-09T00:51:47.544Z,101430.78
2023-05-09T00:54:14.582Z,101435.00
2023-05-09T00:56:41.664Z,101431.41
2023-05-09T00:59:08.363Z,101432.38
2023-05-09T01:01:37.091Z,101422.72
2023-05-09T01:04:04.078Z,101423.53
2023-05-09T01:06:32.903Z,101412.44
2023-05-09T01:09:07.939Z,101413.25
2023-05-09T01:12:03.209Z,101404.56
2023-05-09T01:15:02.743Z,101403.56
2023-05-09T01:17:59.036Z,101397.69
2023-05-09T01:21:03.887Z,101396.47
2023-05-09T01:24:08.585Z,101391.81
2023-05-09T01:27:01.844Z,101397.00
2023-05-09T01:29:37.516Z,101390.34
2023-05-09T01:32:28.134Z,101389.88
2023-05-09T01:34:59.490Z,101384.25
2023-05-09T01:37:33.901Z,101375.97
2023-05-09T01:40:08.413Z,101378.75
2023-05-09T01:42:43.742Z,101371.09
2023-05-09T01:45:12.731Z,101377.72
2023-05-09T01:47:42.626Z,101360.94
2023-05-09T01:50:11.763Z,101373.41
2023-05-09T01:52:42.684Z,101371.16
2023-05-09T01:55:10.926Z,101361.88
2023-05-09T01:57:41.003Z,101361.25
2023-05-09T02:00:10.299Z,101360.63
2023-05-09T02:02:38.829Z,101360.84
2023-05-09T02:05:06.656Z,101366.44
2023-05-09T02:07:33.902Z,101356.34
2023-05-09T02:10:02.467Z,101360.78
2023-05-09T02:12:31.427Z,101352.47
2023-05-09T02:14:58.140Z,101358.09
2023-05-09T02:17:43.809Z,101352.84
2023-05-09T02:20:11.761Z,101355.66
2023-05-09T02:22:41.382Z,101357.31
2023-05-09T02:25:09.346Z,101354.03
2023-05-09T02:27:56.057Z,101353.06
2023-05-09T02:30:26.220Z,101345.56
2023-05-09T02:33:01.394Z,101345.56
2023-05-09T02:35:29.166Z,101345.75
2023-05-09T02:38:14.620Z,101346.94
2023-05-09T02:40:44.487Z,101346.31
2023-05-09T02:43:29.738Z,101344.69
2023-05-09T02:45:56.512Z,101351.94
2023-05-09T02:48:23.435Z,101349.16
2023-05-09T02:50:50.164Z,101344.69
2023-05-09T02:53:16.769Z,101349.94
2023-05-09T02:55:43.556Z,101342.06
2023-05-09T02:58:15.104Z,101337.84
2023-05-09T03:00:42.635Z,101332.63
2023-05-09T03:03:09.573Z,101330.81
2023-05-09T03:05:55.182Z,101329.19
2023-05-09T03:08:21.819Z,101330.38
2023-05-09T03:10:48.473Z,101319.91
2023-05-09T03:13:15.253Z,101318.91
2023-05-09T03:15:45.272Z,101318.09
2023-05-09T03:18:12.538Z,101315.28
2023-05-09T03:20:39.248Z,101306.66
2023-05-09T03:23:07.841Z,101307.63
2023-05-09T03:25:34.677Z,101312.06
2023-05-09T03:28:01.590Z,101298.16
2023-05-09T03:30:28.322Z,101308.63
2023-05-09T03:32:55.884Z,101307.81
2023-05-09T03:35:28.808Z,101303.38
2023-05-09T03:37:55.436Z,101294.75
2023-05-09T03:40:22.146Z,101296.53
2023-05-09T03:43:07.627Z,101300.97
2023-05-09T03:45:36.206Z,101293.09
2023-05-09T03:48:05.417Z,101294.91
2023-05-09T03:50:34.434Z,101289.50
2023-05-09T03:53:01.276Z,101288.06
2023-05-09T03:55:30.578Z,101285.63
2023-05-09T03:57:57.621Z,101283.22
2023-05-09T04:00:26.862Z,101286.03
2023-05-09T04:02:53.741Z,101287.22
2023-05-09T04:05:21.512Z,101288.19
2023-05-09T04:07:48.244Z,101283.16
2023-05-09T04:10:15.518Z,101275.94
2023-05-09T04:12:44.896Z,101281.97
2023-05-09T04:15:15.415Z,101281.16
2023-05-09T04:17:42.935Z,101275.09
2023-05-09T04:20:10.909Z,101275.94
2023-05-09T04:22:37.709Z,101269.06
2023-05-09T04:25:06.605Z,101276.13
2023-05-09T04:27:33.867Z,101268.88
2023-05-09T04:30:00.525Z,101277.56
2023-05-09T04:32:28.088Z,101272.13
2023-05-09T04:34:54.772Z,101273.72
2023-05-09T04:37:22.168Z,101270.72
2023-05-09T04:40:10.493Z,101262.69
2023-05-09T04:42:37.660Z,101259.09
2023-05-09T04:45:05.641Z,101254.66
2023-05-09T04:47:50.956Z,101262.16
2023-05-09T04:50:17.690Z,101255.28
2023-05-09T04:52:44.502Z,101258.72
2023-05-09T04:55:11.421Z,101248.03
2023-05-09T04:57:38.164Z,101252.91
2023-05-09T05:00:08.028Z,101247.66
2023-05-09T05:02:34.949Z,101250.09
2023-05-09T05:05:21.784Z,101244.03
2023-05-09T05:07:50.533Z,101245.66
2023-05-09T05:10:17.240Z,101252.50
2023-05-09T05:12:43.981Z,101252.31
2023-05-09T05:15:11.144Z,101245.28
2023-05-09T05:17:38.928Z,101236.63
2023-05-09T05:20:07.563Z,101240.66
2023-05-09T05:22:34.341Z,101233.59
2023-05-09T05:25:03.448Z,101234.41
2023-05-09T05:27:30.114Z,101233.59
2023-05-09T05:30:18.380Z,101239.47
2023-05-09T05:32:45.037Z,101244.88
2023-05-09T05:35:12.185Z,101236.03
2023-05-09T05:37:40.423Z,101234.25
2023-05-09T05:40:08.149Z,101237.25
2023-05-09T05:42:34.956Z,101229.22
2023-05-09T05:45:04.454Z,101228.03
2023-05-09T05:47:35.653Z,101220.59
2023-05-09T05:50:11.685Z,101222.19
2023-05-09T05:52:39.379Z,101211.34
2023-05-09T05:55:12.492Z,101209.16
2023-05-09T05:57:39.485Z,101223.66
2023-05-09T06:00:14.739Z,101220.88
2023-05-09T06:02:45.368Z,101223.09
2023-05-09T06:05:12.624Z,101213.44
2023-05-09T06:07:41.961Z,101215.69
2023-05-09T06:10:09.018Z,101209.44
2023-05-09T06:12:36.702Z,101215.31
2023-05-09T06:15:05.864Z,101212.69
2023-05-09T06:17:33.765Z,101203.63
2023-05-09T06:20:00.599Z,101196.78
2023-05-09T06:22:27.389Z,101200.44
2023-05-09T06:24:55.904Z,101196.66
2023-05-09T06:27:22.760Z,101194.84
2023-05-09T06:29:52.745Z,101191.66
2023-05-09T06:32:19.644Z,101177.72
2023-05-09T06:34:46.526Z,101177.75
2023-05-09T06:37:15.321Z,101179.19
2023-05-09T06:39:42.260Z,101171.13
2023-05-09T06:42:09.622Z,101171.53
2023-05-09T06:44:55.030Z,101170.53
2023-05-09T06:47:21.727Z,101167.53
2023-05-09T06:50:07.431Z,101166.13
2023-05-09T06:52:34.077Z,101159.84
2023-05-09T06:55:19.538Z,101145.66
2023-05-09T06:57:46.238Z,101146.25
2023-05-09T07:00:13.835Z,101154.28
2023-05-09T07:02:43.251Z,101153.66
2023-05-09T07:05:10.791Z,101146.41
2023-05-09T07:07:38.901Z,101149.25
2023-05-09T07:10:11.843Z,101143.66
2023-05-09T07:12:40.901Z,101142.03
2023-05-09T07:15:11.059Z,101138.03
2023-05-09T07:17:37.938Z,101138.84
2023-05-09T07:20:05.738Z,101129.56
2023-05-09T07:22:34.126Z,101126.97
2023-05-09T07:25:02.377Z,101126.16
2023-05-09T07:27:31.237Z,101121.72
2023-05-09T07:29:57.929Z,101110.41
2023-05-09T07:32:28.876Z,101118.06
2023-05-09T07:34:57.883Z,101111.00
2023-05-09T07:37:24.535Z,101117.69
2023-05-09T07:39:52.508Z,101112.22
2023-05-09T07:42:19.148Z,101107.78
2023-05-09T07:44:46.464Z,101109.19
2023-05-09T07:47:13.048Z,101109.78
2023-05-09T07:49:40.726Z,101108.34
2023-05-09T07:52:07.413Z,101115.22
2023-05-09T07:54:34.126Z,101106.94
2023-05-09T07:57:00.802Z,101107.13
2023-05-09T07:59:27.854Z,101089.56
2023-05-09T08:01:54.607Z,101092.38
2023-05-09T08:04:24.895Z,101089.72
2023-05-09T08:06:51.625Z,101087.88
2023-05-09T08:09:18.767Z,101086.22
2023-05-09T08:11:46.002Z,101075.09
2023-05-09T08:14:15.622Z,101070.19
2023-05-09T08:16:45.163Z,101069.53
2023-05-09T08:19:11.735Z,101073.50
2023-05-09T08:21:57.069Z,101064.78
2023-05-09T08:24:24.127Z,101058.84
2023-05-09T08:26:50.820Z,101053.72
2023-05-09T08:29:18.358Z,101050.38
2023-05-09T08:31:45.188Z,101052.31
2023-05-09T08:34:14.005Z,101052.03
2023-05-09T08:36:45.581Z,101055.84
2023-05-09T08:39:12.311Z,101047.69
2023-05-09T08:41:39.898Z,101049.72
2023-05-09T08:44:06.984Z,101048.47
2023-05-09T08:46:42.393Z,101040.34
2023-05-09T08:49:09.983Z,101035.50
2023-05-09T08:51:43.406Z,101029.28
2023-05-09T08:54:11.387Z,101029.88
2023-05-09T08:56:38.279Z,101032.44
2023-05-09T08:59:05.940Z,101022.69
2023-05-09T09:01:36.846Z,101023.66
2023-05-09T09:04:09.095Z,101012.41
2023-05-09T09:06:39.559Z,101015.75
2023-05-09T09:09:25.497Z,101012.00
2023-05-09T09:11:53.459Z,101010.97
2023-05-09T09:14:27.698Z,101003.88
2023-05-09T09:16:56.159Z,101004.56
2023-05-09T09:19:30.704Z,101011.44
2023-05-09T09:21:59.769Z,101004.34
2023-05-09T09:24:26.454Z,100999.41
2023-05-09T09:26:53.240Z,100999.50
2023-05-09T09:29:21.072Z,100991.94
2023-05-09T09:31:55.165Z,100978.50
2023-05-09T09:34:23.544Z,100990.31
2023-05-09T09:36:50.649Z,100990.09
2023-05-09T09:39:17.555Z,100984.47
2023-05-09T09:41:46.968Z,100979.88
2023-05-09T09:44:16.127Z,100975.66
2023-05-09T09:46:51.383Z,100975.78
2023-05-09T09:49:20.236Z,100972.66
2023-05-09T09:51:57.953Z,100974.63
2023-05-09T09:54:29.297Z,100969.22
2023-05-09T09:56:57.246Z,100968.47
2023-05-09T09:59:25.918Z,100956.19
2023-05-09T10:02:09.335Z,100949.97
2023-05-09T10:04:39.453Z,100951.31
2023-05-09T10:07:14.876Z,100951.75
2023-05-09T10:09:49.347Z,100941.31
2023-05-09T10:12:19.800Z,100940.50
2023-05-09T10:14:48.313Z,100942.78
2023-05-09T10:17:16.251Z,100932.09
2023-05-09T10:19:47.662Z,100934.34
2023-05-09T10:22:17.981Z,100928.25
2023-05-09T10:24:57.649Z,100927.78
2023-05-09T10:27:27.646Z,100925.41
2023-05-09T10:30:08.711Z,100919.59
2023-05-09T10:33:02.921Z,100922.81
2023-05-09T10:35:40.753Z,100912.94
2023-05-09T10:38:08.007Z,100905.94
2023-05-09T10:40:35.348Z,100901.81
2023-05-09T10:43:02.100Z,100894.09
2023-05-09T10:45:29.095Z,100896.19
2023-05-09T10:47:58.347Z,100894.31
2023-05-09T10:50:25.962Z,100893.25
2023-05-09T10:53:17.954Z,100880.00
2023-05-09T10:55:50.763Z,100881.88
2023-05-09T10:58:22.874Z,100880.09
2023-05-09T11:00:50.809Z,100875.41
2023-05-09T11:03:19.686Z,100879.66
2023-05-09T11:05:48.176Z,100874.13
2023-05-09T11:08:30.721Z,100873.50
2023-05-09T11:11:00.753Z,100859.88
2023-05-09T11:13:31.683Z,100853.50
2023-05-09T11:16:17.038Z,100852.47
2023-05-09T11:18:52.525Z,100857.97
2023-05-09T11:21:20.532Z,100852.03
2023-05-09T11:23:48.180Z,100849.31
2023-05-09T11:26:15.993Z,100848.03
2023-05-09T11:28:53.751Z,100835.63
2023-05-09T11:31:27.510Z,100826.97
2023-05-09T11:34:07.186Z,100822.47
2023-05-09T11:36:34.081Z,100819.81
2023-05-09T11:39:08.556Z,100816.25
2023-05-09T11:41:46.584Z,100811.69
2023-05-09T11:44:21.484Z,100812.66
2023-05-09T11:46:49.462Z,100805.94
2023-05-09T11:49:17.761Z,100789.59
2023-05-09T11:51:44.437Z,100792.13
2023-05-09T11:54:13.674Z,100782.69
2023-05-09T11:56:42.080Z,100790.47
2023-05-09T11:59:13.219Z,100777.06
2023-05-09T12:01:39.952Z,100779.97
2023-05-09T12:04:08.970Z,100771.47
2023-05-09T12:06:37.798Z,100770.47
2023-05-09T12:09:05.281Z,100763.06
2023-05-09T12:11:32.558Z,100754.31
2023-05-09T12:13:59.385Z,100759.38
2023-05-09T12:16:26.131Z,100755.34
2023-05-09T12:18:53.054Z,100747.41
2023-05-09T12:21:22.056Z,100743.41
2023-05-09T12:23:51.236Z,100745.00
2023-05-09T12:26:22.710Z,100745.81
2023-05-09T12:28:50.186Z,100740.50
2023-05-09T12:31:17.574Z,100742.34
2023-05-09T12:33:44.748Z,100745.25
2023-05-09T12:36:13.616Z,100734.81
2023-05-09T12:38:40.298Z,100731.13
2023-05-09T12:41:31.052Z,100732.72
2023-05-09T12:44:02.027Z,100732.22
2023-05-09T12:46:28.782Z,100730.28
2023-05-09T12:48:55.738Z,100733.47
2023-05-09T12:51:23.042Z,100730.59
2023-05-09T12:53:50.088Z,100734.91
2023-05-09T12:56:19.326Z,100741.28
2023-05-09T12:58:51.309Z,100737.81
2023-05-09T13:01:23.091Z,100739.97
2023-05-09T13:04:00.207Z,100736.00
2023-05-09T13:06:27.269Z,100736.41
2023-05-09T13:09:01.665Z,100737.13
2023-05-09T13:11:54.242Z,100740.34
2023-05-09T13:14:22.628Z,100731.25
2023-05-09T13:16:49.261Z,100735.97
2023-05-09T13:19:39.448Z,100723.47
2023-05-09T13:22:07.214Z,100712.09
2023-05-09T13:24:33.886Z,100716.75
2023-05-09T13:27:00.681Z,100724.00
2023-05-09T13:29:27.365Z,100724.19
2023-05-09T13:31:54.715Z,100715.44
2023-05-09T13:34:23.169Z,100711.22
2023-05-09T13:37:09.161Z,100710.97
2023-05-09T13:39:36.545Z,100706.97
2023-05-09T13:42:04.980Z,100706.13
2023-05-09T13:44:31.704Z,100702.19
2023-05-09T13:47:00.235Z,100700.44
2023-05-09T13:49:44.081Z,100693.56
2023-05-09T13:52:12.767Z,100695.66
2023-05-09T13:54:41.512Z,100693.22
2023-05-09T13:57:08.198Z,100684.53
2023-05-09T13:59:35.448Z,100683.56
2023-05-09T14:02:02.585Z,100673.81
2023-05-09T14:04:35.069Z,100684.06
2023-05-09T14:07:01.974Z,100672.63
2023-05-09T14:09:29.670Z,100677.25
2023-05-09T14:11:57.161Z,100675.44
2023-05-09T14:14:43.435Z,100677.44
2023-05-09T14:17:10.321Z,100673.91
2023-05-09T14:19:38.864Z,100678.00
2023-05-09T14:22:05.497Z,100679.78
2023-05-09T14:24:33.474Z,100667.13
2023-05-09T14:27:00.312Z,100665.63
2023-05-09T14:29:27.406Z,100671.28
2023-05-09T14:31:56.163Z,100671.56
2023-05-09T14:34:23.087Z,100675.06
2023-05-09T14:36:50.301Z,100671.66
2023-05-09T14:39:17.143Z,100672.41
2023-05-09T14:41:47.848Z,100671.25
2023-05-09T14:44:14.588Z,100674.38
2023-05-09T14:46:48.435Z,100676.09
2023-05-09T14:49:15.176Z,100674.25
2023-05-09T14:51:50.717Z,100674.81
2023-05-09T14:54:17.339Z,100673.25
2023-05-09T14:56:44.672Z,100673.56
2023-05-09T14:59:11.846Z,100676.22
2023-05-09T15:01:39.764Z,100670.72
2023-05-09T15:04:06.660Z,100665.34
2023-05-09T15:06:33.654Z,100657.19
2023-05-09T15:09:01.927Z,100661.44
2023-05-09T15:11:28.822Z,100662.13
2023-05-09T15:14:18.859Z,100664.88
2023-05-09T15:16:45.760Z,100653.88
2023-05-09T15:19:12.748Z,100651.38
2023-05-09T15:21:58.856Z,100661.44
2023-05-09T15:24:30.528Z,100662.19
2023-05-09T15:26:57.257Z,100662.41
2023-05-09T15:29:26.046Z,100661.47
2023-05-09T15:31:55.745Z,100660.66
2023-05-09T15:34:24.015Z,100661.78
2023-05-09T15:36:50.674Z,100647.97
2023-05-09T15:39:18.070Z,100651.28
2023-05-09T15:41:45.010Z,100643.28
2023-05-09T15:44:14.485Z,100641.34
2023-05-09T15:46:41.267Z,100636.22
2023-05-09T15:49:08.173Z,100643.09
2023-05-09T15:51:35.151Z,100639.19
2023-05-09T15:54:06.962Z,100630.03
2023-05-09T15:56:33.555Z,100623.41
2023-05-09T15:59:00.458Z,100625.81
2023-05-09T16:01:27.277Z,100625.81
2023-05-09T16:03:54.025Z,100616.66
2023-05-09T16:06:27.013Z,100611.16
2023-05-09T16:08:54.428Z,100617.34
2023-05-09T16:11:21.965Z,100612.66
2023-05-09T16:14:11.375Z,100614.72
2023-05-09T16:16:39.592Z,100609.19
2023-05-09T16:19:06.932Z,100615.13
2023-05-09T16:21:52.548Z,100601.50
2023-05-09T16:24:19.227Z,100605.75
2023-05-09T16:26:48.042Z,100607.00
2023-05-09T16:29:14.686Z,100602.75
2023-05-09T16:31:41.388Z,100599.44
2023-05-09T16:34:09.161Z,100595.31
2023-05-09T16:36:37.572Z,100593.25
2023-05-09T16:39:04.234Z,100591.22
2023-05-09T16:41:32.775Z,100592.22
2023-05-09T16:44:00.246Z,100591.06
2023-05-09T16:46:27.205Z,100590.94
2023-05-09T16:48:55.701Z,100590.59
2023-05-09T16:51:28.327Z,100585.66
2023-05-09T16:53:55.358Z,100581.78
2023-05-09T16:56:22.705Z,100579.38
2023-05-09T16:58:49.977Z,100581.41
2023-05-09T17:01:16.753Z,100572.75
2023-05-09T17:03:43.512Z,100579.00
2023-05-09T17:06:10.432Z,100573.53
2023-05-09T17:08:37.158Z,100581.63
2023-05-09T17:11:05.496Z,100579.44
2023-05-09T17:13:32.237Z,100575.09
2023-05-09T17:15:59.040Z,100580.00
2023-05-09T17:18:36.570Z,100578.41
2023-05-09T17:21:04.858Z,100573.19
2023-05-09T17:23:31.932Z,100574.88
2023-05-09T17:26:01.099Z,100576.78
2023-05-09T17:31:18.502Z,100580.16
2023-05-09T17:33:47.308Z,100570.19
2023-05-09T17:36:14.077Z,100571.88
2023-05-09T17:38:41.026Z,100568.88
2023-05-09T17:41:08.217Z,100572.00
2023-05-09T17:43:35.035Z,100574.50
2023-05-09T17:46:01.809Z,100561.44
2023-05-09T17:48:30.504Z,100558.88
2023-05-09T17:50:59.650Z,100561.59
2023-05-09T17:53:26.625Z,100562.00
2023-05-09T17:55:53.285Z,100559.84
2023-05-09T17:58:20.889Z,100559.09
2023-05-09T18:00:47.604Z,100553.69
2023-05-09T18:03:33.014Z,100557.75
2023-05-09T18:06:02.892Z,100556.22
2023-05-09T18:08:29.982Z,100556.78
2023-05-09T18:10:57.515Z,100557.59
2023-05-09T18:13:24.450Z,100560.63
2023-05-09T18:15:51.512Z,100558.66
2023-05-09T18:18:22.443Z,100563.56
2023-05-09T18:20:49.269Z,100569.22
2023-05-09T18:23:16.114Z,100560.72
2023-05-09T18:25:42.779Z,100562.53
2023-05-09T18:28:13.962Z,100560.75
2023-05-09T18:30:41.357Z,100554.34
2023-05-09T18:33:08.216Z,100556.00
2023-05-09T18:35:35.202Z,100563.88
2023-05-09T18:38:02.143Z,100565.69
2023-05-09T18:40:28.819Z,100560.44
2023-05-09T18:42:55.453Z,100562.06
2023-05-09T18:45:22.458Z,100565.50
2023-05-09T18:47:49.286Z,100556.66
2023-05-09T18:50:16.473Z,100550.81
2023-05-09T18:53:03.254Z,100549.31
2023-05-09T18:55:29.872Z,100550.19
2023-05-09T18:57:56.680Z,100552.97
2023-05-09T19:00:23.816Z,100549.91
2023-05-09T19:02:50.508Z,100552.31
2023-05-09T19:05:17.317Z,100549.72
2023-05-09T19:07:43.921Z,100547.72
2023-05-09T19:10:11.043Z,100547.72
2023-05-09T19:12:37.757Z,100559.22
2023-05-09T19:15:07.566Z,100552.56
2023-05-09T19:17:34.703Z,100552.00
2023-05-09T19:20:02.657Z,100558.63
2023-05-09T19:22:29.655Z,100558.03
2023-05-09T19:25:01.326Z,100562.88
2023-05-09T19:27:32.859Z,100563.09
2023-05-09T19:30:00.021Z,100565.94
2023-05-09T19:32:27.350Z,100572.78
2023-05-09T19:34:54.114Z,100561.13
2023-05-09T19:37:20.758Z,100567.59
2023-05-09T19:39:47.611Z,100564.38
2023-05-09T19:42:15.054Z,100560.72
2023-05-09T19:44:41.901Z,100557.34
2023-05-09T19:47:14.265Z,100552.28
2023-05-09T19:49:42.869Z,100547.50
2023-05-09T19:52:10.758Z,100547.91
2023-05-09T19:54:37.535Z,100548.91
2023-05-09T19:57:06.582Z,100554.38
2023-05-09T19:59:33.380Z,100549.34
2023-05-09T20:02:05.929Z,100549.75
2023-05-09T20:04:35.213Z,100555.81
2023-05-09T20:07:05.166Z,100554.41
2023-05-09T20:09:32.996Z,100554.19
2023-05-09T20:12:02.129Z,100551.38
2023-05-09T20:14:29.789Z,100552.41
2023-05-09T20:16:57.117Z,100552.41
2023-05-09T20:19:23.989Z,100546.56
2023-05-09T20:22:09.168Z,100539.50
2023-05-09T20:24:35.801Z,100538.72
2023-05-09T20:27:03.183Z,100533.66
2023-05-09T20:29:29.928Z,100529.88
2023-05-09T20:31:56.617Z,100532.91
2023-05-09T20:34:24.650Z,100533.94
2023-05-09T20:36:53.609Z,100538.34
2023-05-09T20:39:21.243Z,100536.72
2023-05-09T20:41:49.482Z,100530.91
2023-05-09T20:44:17.719Z,100535.56
2023-05-09T20:46:46.149Z,100541.22
2023-05-09T20:49:12.934Z,100539.25
2023-05-09T20:51:39.595Z,100530.75
2023-05-09T20:54:08.373Z,100530.75
2023-05-09T20:56:35.689Z,100526.56
2023-05-09T20:59:04.445Z,100518.91
2023-05-09T21:01:35.504Z,100525.16
2023-05-09T21:04:08.337Z,100525.97
2023-05-09T21:06:36.558Z,100523.53
2023-05-09T21:09:06.349Z,100522.53
2023-05-09T21:11:33.101Z,100527.19
2023-05-09T21:14:00.114Z,100515.09
2023-05-09T21:16:33.967Z,100515.09
2023-05-09T21:19:04.940Z,100513.50
2023-05-09T21:21:33.645Z,100516.13
2023-05-09T21:24:03.348Z,100511.09
2023-05-09T21:26:49.008Z,100501.44
2023-05-09T21:29:15.679Z,100510.31
2023-05-09T21:31:42.410Z,100500.25
2023-05-09T21:34:11.593Z,100502.28
2023-05-09T21:36:40.014Z,100492.81
2023-05-09T21:42:16.352Z,100492.03
2023-05-09T21:44:43.055Z,100491.03
2023-05-09T21:47:10.277Z,100494.06
2023-05-09T21:49:37.725Z,100497.88
2023-05-09T21:52:04.685Z,100492.88
2023-05-09T21:54:33.751Z,100493.09
2023-05-09T21:57:01.072Z,100497.50
2023-05-09T21:59:46.345Z,100496.47
2023-05-09T22:02:13.057Z,100496.47
2023-05-09T22:04:40.312Z,100492.28
2023-05-09T22:07:06.985Z,100499.09
2023-05-09T22:09:33.631Z,100499.09
2023-05-09T22:12:00.211Z,100493.28
2023-05-09T22:14:27.093Z,100492.69
2023-05-09T22:16:55.303Z,100496.31
2023-05-09T22:19:21.974Z,100495.53
2023-05-09T22:21:50.372Z,100492.09
2023-05-09T22:24:17.020Z,100494.72
2023-05-09T22:27:02.489Z,100501.94
2023-05-09T22:29:34.491Z,100496.13
2023-05-09T22:32:02.281Z,100493.09
2023-05-09T22:34:28.971Z,100490.69
2023-05-09T22:36:55.517Z,100492.31
2023-05-09T22:39:40.853Z,100482.63
2023-05-09T22:42:11.029Z,100487.09
2023-05-09T22:44:39.564Z,100485.47
2023-05-09T22:47:09.808Z,100488.50
2023-05-09T22:49:36.614Z,100476.63
2023-05-09T22:52:05.018Z,100483.47
2023-05-09T22:54:31.753Z,100482.06
2023-05-09T22:56:58.403Z,100476.25
2023-05-09T22:59:26.694Z,100477.06
2023-05-09T23:01:53.621Z,100479.84
2023-05-09T23:04:20.721Z,100475.44
2023-05-09T23:06:47.483Z,100467.00
2023-05-09T23:09:14.118Z,100472.44
2023-05-09T23:11:59.734Z,100476.47
2023-05-09T23:14:26.903Z,100472.84
2023-05-09T23:16:56.695Z,100465.00
2023-05-09T23:19:23.506Z,100474.88
2023-05-09T23:21:51.489Z,100476.50
2023-05-09T23:24:18.165Z,100469.06
2023-05-09T23:26:45.228Z,100476.91
2023-05-09T23:29:12.052Z,100469.06
2023-05-09T23:31:42.940Z,100470.84
2023-05-09T23:34:09.615Z,100470.06
2023-05-09T23:36:36.252Z,100473.47
2023-05-09T23:39:03.520Z,100468.25
2023-05-09T23:41:30.192Z,100463.00
2023-05-09T23:44:15.615Z,100467.66
2023-05-09T23:46:42.425Z,100468.88
2023-05-09T23:49:14.979Z,100471.31
2023-05-09T23:51:41.752Z,100466.72
2023-05-09T23:54:08.668Z,100467.06
2023-05-09T23:56:36.084Z,100469.72
2023-05-09T23:59:02.749Z,100480.00
